sensor_id;sensor_type;location;lat;lon;timestamp;P1;durP1;ratioP1;P2;durP2;ratioP2
7929;SDS011;4010;42.698;23.124;2023-03-03T00:01:03;4.03;;;3.43;;
7929;SDS011;4010;42.698;23.124;2023-03-03T00:03:30;4.77;;;3.27;;
7929;SDS011;4010;42.698;23.124;2023-03-03T00:05:58;4.70;;;3.00;;
7929;SDS011;4010;42.698;23.124;2023-03-03T00:08:25;4.50;;;3.13;;
7929;SDS011;4010;42.698;23.124;2023-03-03T00:10:53;4.77;;;3.27;;
7929;SDS011;4010;42.698;23.124;2023-03-03T00:13:21;5.67;;;3.20;;
7929;SDS011;4010;42.698;23.124;2023-03-03T00:15:49;3.53;;;3.03;;
7929;SDS011;4010;42.698;23.124;2023-03-03T00:18:19;5.23;;;2.90;;
7929;SDS011;4010;42.698;23.124;2023-03-03T00:20:48;3.33;;;2.93;;
7929;SDS011;4010;42.698;23.124;2023-03-03T00:23:19;3.17;;;2.87;;
7929;SDS011;4010;42.698;23.124;2023-03-03T00:25:53;3.70;;;2.67;;
7929;SDS011;4010;42.698;23.124;2023-03-03T00:28:22;3.87;;;3.23;;
7929;SDS011;4010;42.698;23.124;2023-03-03T00:30:51;4.37;;;3.00;;
7929;SDS011;4010;42.698;23.124;2023-03-03T00:33:30;4.77;;;3.73;;
7929;SDS011;4010;42.698;23.124;2023-03-03T00:35:59;5.00;;;3.43;;
7929;SDS011;4010;42.698;23.124;2023-03-03T00:38:56;3.93;;;3.00;;
7929;SDS011;4010;42.698;23.124;2023-03-03T00:41:37;5.40;;;3.93;;
7929;SDS011;4010;42.698;23.124;2023-03-03T00:44:16;4.07;;;3.43;;
7929;SDS011;4010;42.698;23.124;2023-03-03T00:46:57;4.43;;;3.23;;
7929;SDS011;4010;42.698;23.124;2023-03-03T00:49:38;5.33;;;3.43;;
7929;SDS011;4010;42.698;23.124;2023-03-03T00:52:09;4.70;;;3.57;;
7929;SDS011;4010;42.698;23.124;2023-03-03T00:54:38;3.83;;;3.33;;
7929;SDS011;4010;42.698;23.124;2023-03-03T00:57:06;4.33;;;3.50;;
7929;SDS011;4010;42.698;23.124;2023-03-03T00:59:33;4.13;;;3.00;;
7929;SDS011;4010;42.698;23.124;2023-03-03T01:02:00;5.10;;;3.60;;
7929;SDS011;4010;42.698;23.124;2023-03-03T01:04:26;5.17;;;3.57;;
7929;SDS011;4010;42.698;23.124;2023-03-03T01:06:53;4.77;;;3.40;;
7929;SDS011;4010;42.698;23.124;2023-03-03T01:09:20;3.70;;;3.03;;
7929;SDS011;4010;42.698;23.124;2023-03-03T01:11:47;6.50;;;4.00;;
7929;SDS011;4010;42.698;23.124;2023-03-03T01:14:15;7.17;;;4.17;;
7929;SDS011;4010;42.698;23.124;2023-03-03T01:16:42;6.57;;;4.03;;
7929;SDS011;4010;42.698;23.124;2023-03-03T01:19:09;4.77;;;3.57;;
7929;SDS011;4010;42.698;23.124;2023-03-03T01:21:35;5.00;;;3.60;;
7929;SDS011;4010;42.698;23.124;2023-03-03T01:24:04;6.43;;;3.70;;
7929;SDS011;4010;42.698;23.124;2023-03-03T01:26:30;5.50;;;4.20;;
7929;SDS011;4010;42.698;23.124;2023-03-03T01:28:57;5.63;;;3.43;;
7929;SDS011;4010;42.698;23.124;2023-03-03T01:31:25;4.97;;;3.97;;
7929;SDS011;4010;42.698;23.124;2023-03-03T01:33:52;4.80;;;3.53;;
7929;SDS011;4010;42.698;23.124;2023-03-03T01:36:21;4.10;;;3.70;;
7929;SDS011;4010;42.698;23.124;2023-03-03T01:38:49;5.73;;;3.87;;
7929;SDS011;4010;42.698;23.124;2023-03-03T01:41:16;4.07;;;3.67;;
7929;SDS011;4010;42.698;23.124;2023-03-03T01:43:43;5.17;;;3.90;;
7929;SDS011;4010;42.698;23.124;2023-03-03T01:46:30;6.37;;;3.77;;
7929;SDS011;4010;42.698;23.124;2023-03-03T01:49:12;4.57;;;3.43;;
7929;SDS011;4010;42.698;23.124;2023-03-03T01:51:42;4.10;;;3.43;;
7929;SDS011;4010;42.698;23.124;2023-03-03T01:54:17;4.40;;;3.40;;
7929;SDS011;4010;42.698;23.124;2023-03-03T01:56:50;7.10;;;3.77;;
7929;SDS011;4010;42.698;23.124;2023-03-03T01:59:22;4.43;;;3.40;;
7929;SDS011;4010;42.698;23.124;2023-03-03T02:01:53;6.63;;;4.00;;
7929;SDS011;4010;42.698;23.124;2023-03-03T02:04:19;3.90;;;3.50;;
7929;SDS011;4010;42.698;23.124;2023-03-03T02:06:48;4.40;;;3.50;;
7929;SDS011;4010;42.698;23.124;2023-03-03T02:09:19;5.50;;;3.93;;
7929;SDS011;4010;42.698;23.124;2023-03-03T02:11:52;5.80;;;3.60;;
7929;SDS011;4010;42.698;23.124;2023-03-03T02:14:23;4.23;;;3.67;;
7929;SDS011;4010;42.698;23.124;2023-03-03T02:16:50;5.37;;;3.97;;
7929;SDS011;4010;42.698;23.124;2023-03-03T02:19:19;6.13;;;4.10;;
7929;SDS011;4010;42.698;23.124;2023-03-03T02:21:53;4.40;;;3.53;;
7929;SDS011;4010;42.698;23.124;2023-03-03T02:24:22;6.03;;;4.20;;
7929;SDS011;4010;42.698;23.124;2023-03-03T02:26:54;6.27;;;4.50;;
7929;SDS011;4010;42.698;23.124;2023-03-03T02:29:21;5.23;;;4.20;;
7929;SDS011;4010;42.698;23.124;2023-03-03T02:31:47;6.63;;;4.83;;
7929;SDS011;4010;42.698;23.124;2023-03-03T02:34:14;5.23;;;3.87;;
7929;SDS011;4010;42.698;23.124;2023-03-03T02:36:41;5.07;;;4.07;;
7929;SDS011;4010;42.698;23.124;2023-03-03T02:39:09;4.90;;;4.17;;
7929;SDS011;4010;42.698;23.124;2023-03-03T02:41:39;6.47;;;4.40;;
7929;SDS011;4010;42.698;23.124;2023-03-03T02:44:11;5.93;;;4.17;;
7929;SDS011;4010;42.698;23.124;2023-03-03T02:46:40;5.23;;;4.33;;
7929;SDS011;4010;42.698;23.124;2023-03-03T02:49:09;5.90;;;4.60;;
7929;SDS011;4010;42.698;23.124;2023-03-03T02:51:38;6.87;;;4.40;;
7929;SDS011;4010;42.698;23.124;2023-03-03T02:54:10;6.63;;;4.47;;
7929;SDS011;4010;42.698;23.124;2023-03-03T02:56:38;6.47;;;4.27;;
7929;SDS011;4010;42.698;23.124;2023-03-03T02:59:05;7.73;;;4.63;;
7929;SDS011;4010;42.698;23.124;2023-03-03T03:01:33;6.03;;;4.00;;
7929;SDS011;4010;42.698;23.124;2023-03-03T03:04:01;5.60;;;4.30;;
7929;SDS011;4010;42.698;23.124;2023-03-03T03:06:30;5.70;;;3.90;;
7929;SDS011;4010;42.698;23.124;2023-03-03T03:08:57;5.57;;;4.00;;
7929;SDS011;4010;42.698;23.124;2023-03-03T03:11:24;6.30;;;4.33;;
7929;SDS011;4010;42.698;23.124;2023-03-03T03:13:51;6.53;;;5.00;;
7929;SDS011;4010;42.698;23.124;2023-03-03T03:16:18;4.53;;;3.93;;
7929;SDS011;4010;42.698;23.124;2023-03-03T03:18:46;6.47;;;4.67;;
7929;SDS011;4010;42.698;23.124;2023-03-03T03:21:14;6.33;;;4.23;;
7929;SDS011;4010;42.698;23.124;2023-03-03T03:23:41;5.43;;;3.90;;
7929;SDS011;4010;42.698;23.124;2023-03-03T03:26:08;5.20;;;4.23;;
7929;SDS011;4010;42.698;23.124;2023-03-03T03:28:34;5.97;;;4.23;;
7929;SDS011;4010;42.698;23.124;2023-03-03T03:31:01;5.53;;;3.70;;
7929;SDS011;4010;42.698;23.124;2023-03-03T03:33:29;5.47;;;3.83;;
7929;SDS011;4010;42.698;23.124;2023-03-03T03:35:58;5.80;;;3.93;;
7929;SDS011;4010;42.698;23.124;2023-03-03T03:38:26;4.50;;;3.30;;
7929;SDS011;4010;42.698;23.124;2023-03-03T03:40:54;4.60;;;3.77;;
7929;SDS011;4010;42.698;23.124;2023-03-03T03:43:21;4.73;;;3.53;;
7929;SDS011;4010;42.698;23.124;2023-03-03T03:45:47;5.67;;;3.90;;
7929;SDS011;4010;42.698;23.124;2023-03-03T03:48:14;6.20;;;4.00;;
7929;SDS011;4010;42.698;23.124;2023-03-03T03:50:43;5.47;;;3.57;;
7929;SDS011;4010;42.698;23.124;2023-03-03T03:53:11;6.13;;;3.87;;
7929;SDS011;4010;42.698;23.124;2023-03-03T03:55:38;3.83;;;3.30;;
7929;SDS011;4010;42.698;23.124;2023-03-03T03:58:05;4.87;;;3.77;;
7929;SDS011;4010;42.698;23.124;2023-03-03T04:00:31;4.80;;;3.63;;
7929;SDS011;4010;42.698;23.124;2023-03-03T04:02:58;4.43;;;3.57;;
7929;SDS011;4010;42.698;23.124;2023-03-03T04:05:24;4.73;;;4.00;;
7929;SDS011;4010;42.698;23.124;2023-03-03T04:07:51;5.50;;;4.07;;
7929;SDS011;4010;42.698;23.124;2023-03-03T04:10:19;5.73;;;4.03;;
7929;SDS011;4010;42.698;23.124;2023-03-03T04:12:46;4.67;;;3.73;;
7929;SDS011;4010;42.698;23.124;2023-03-03T04:15:13;5.87;;;4.80;;
7929;SDS011;4010;42.698;23.124;2023-03-03T04:17:40;4.97;;;3.73;;
7929;SDS011;4010;42.698;23.124;2023-03-03T04:20:08;6.40;;;5.00;;
7929;SDS011;4010;42.698;23.124;2023-03-03T04:22:37;5.57;;;4.20;;
7929;SDS011;4010;42.698;23.124;2023-03-03T04:25:05;11.60;;;8.17;;
7929;SDS011;4010;42.698;23.124;2023-03-03T04:27:34;7.33;;;5.03;;
7929;SDS011;4010;42.698;23.124;2023-03-03T04:30:02;6.80;;;4.80;;
7929;SDS011;4010;42.698;23.124;2023-03-03T04:32:30;5.83;;;4.63;;
7929;SDS011;4010;42.698;23.124;2023-03-03T04:34:58;7.37;;;5.07;;
7929;SDS011;4010;42.698;23.124;2023-03-03T04:37:24;5.93;;;5.20;;
7929;SDS011;4010;42.698;23.124;2023-03-03T04:39:51;6.63;;;4.77;;
7929;SDS011;4010;42.698;23.124;2023-03-03T04:42:18;8.10;;;5.37;;
7929;SDS011;4010;42.698;23.124;2023-03-03T04:44:46;5.63;;;4.33;;
7929;SDS011;4010;42.698;23.124;2023-03-03T04:47:12;5.40;;;4.90;;
7929;SDS011;4010;42.698;23.124;2023-03-03T04:49:39;5.57;;;4.60;;
7929;SDS011;4010;42.698;23.124;2023-03-03T04:52:06;8.20;;;6.47;;
7929;SDS011;4010;42.698;23.124;2023-03-03T04:54:33;6.70;;;5.93;;
7929;SDS011;4010;42.698;23.124;2023-03-03T04:57:00;7.00;;;4.70;;
7929;SDS011;4010;42.698;23.124;2023-03-03T04:59:26;5.47;;;4.40;;
7929;SDS011;4010;42.698;23.124;2023-03-03T05:01:54;8.73;;;6.73;;
7929;SDS011;4010;42.698;23.124;2023-03-03T05:04:21;8.70;;;6.20;;
7929;SDS011;4010;42.698;23.124;2023-03-03T05:06:48;6.93;;;5.23;;
7929;SDS011;4010;42.698;23.124;2023-03-03T05:09:14;6.27;;;4.80;;
7929;SDS011;4010;42.698;23.124;2023-03-03T05:11:41;9.33;;;8.33;;
7929;SDS011;4010;42.698;23.124;2023-03-03T05:14:08;6.90;;;5.87;;
7929;SDS011;4010;42.698;23.124;2023-03-03T05:16:34;9.00;;;6.80;;
7929;SDS011;4010;42.698;23.124;2023-03-03T05:19:02;11.80;;;8.03;;
7929;SDS011;4010;42.698;23.124;2023-03-03T05:21:29;8.07;;;6.23;;
7929;SDS011;4010;42.698;23.124;2023-03-03T05:23:55;8.23;;;5.73;;
7929;SDS011;4010;42.698;23.124;2023-03-03T05:26:22;11.67;;;6.87;;
7929;SDS011;4010;42.698;23.124;2023-03-03T05:28:49;12.47;;;8.93;;
7929;SDS011;4010;42.698;23.124;2023-03-03T05:31:15;7.57;;;5.90;;
7929;SDS011;4010;42.698;23.124;2023-03-03T05:33:42;7.83;;;6.63;;
7929;SDS011;4010;42.698;23.124;2023-03-03T05:36:10;12.57;;;6.97;;
7929;SDS011;4010;42.698;23.124;2023-03-03T05:38:37;12.93;;;8.97;;
7929;SDS011;4010;42.698;23.124;2023-03-03T05:41:04;9.00;;;5.70;;
7929;SDS011;4010;42.698;23.124;2023-03-03T05:43:30;11.23;;;8.43;;
7929;SDS011;4010;42.698;23.124;2023-03-03T05:45:57;7.50;;;5.93;;
7929;SDS011;4010;42.698;23.124;2023-03-03T05:48:25;7.37;;;5.73;;
7929;SDS011;4010;42.698;23.124;2023-03-03T05:50:51;9.17;;;5.67;;
7929;SDS011;4010;42.698;23.124;2023-03-03T05:53:19;7.53;;;5.67;;
7929;SDS011;4010;42.698;23.124;2023-03-03T05:55:46;12.17;;;5.97;;
7929;SDS011;4010;42.698;23.124;2023-03-03T05:58:13;6.53;;;5.17;;
7929;SDS011;4010;42.698;23.124;2023-03-03T06:00:40;7.67;;;5.37;;
7929;SDS011;4010;42.698;23.124;2023-03-03T06:03:06;6.47;;;5.40;;
7929;SDS011;4010;42.698;23.124;2023-03-03T06:05:33;7.63;;;5.40;;
7929;SDS011;4010;42.698;23.124;2023-03-03T06:08:00;8.10;;;5.80;;
7929;SDS011;4010;42.698;23.124;2023-03-03T06:10:28;6.87;;;4.97;;
7929;SDS011;4010;42.698;23.124;2023-03-03T06:12:55;8.13;;;5.60;;
7929;SDS011;4010;42.698;23.124;2023-03-03T06:15:22;10.53;;;5.67;;
7929;SDS011;4010;42.698;23.124;2023-03-03T06:17:49;6.83;;;4.97;;
7929;SDS011;4010;42.698;23.124;2023-03-03T06:20:16;8.10;;;5.77;;
7929;SDS011;4010;42.698;23.124;2023-03-03T06:22:43;5.97;;;5.30;;
7929;SDS011;4010;42.698;23.124;2023-03-03T06:25:09;8.43;;;5.43;;
7929;SDS011;4010;42.698;23.124;2023-03-03T06:27:37;6.27;;;4.93;;
7929;SDS011;4010;42.698;23.124;2023-03-03T06:30:05;6.00;;;5.27;;
7929;SDS011;4010;42.698;23.124;2023-03-03T06:32:32;7.30;;;5.43;;
7929;SDS011;4010;42.698;23.124;2023-03-03T06:34:59;6.87;;;5.30;;
7929;SDS011;4010;42.698;23.124;2023-03-03T06:37:25;6.90;;;4.73;;
7929;SDS011;4010;42.698;23.124;2023-03-03T06:39:52;9.03;;;5.37;;
7929;SDS011;4010;42.698;23.124;2023-03-03T06:42:19;6.87;;;4.77;;
7929;SDS011;4010;42.698;23.124;2023-03-03T06:44:47;6.23;;;5.50;;
7929;SDS011;4010;42.698;23.124;2023-03-03T06:47:14;6.13;;;5.17;;
7929;SDS011;4010;42.698;23.124;2023-03-03T06:49:40;7.43;;;5.60;;
7929;SDS011;4010;42.698;23.124;2023-03-03T06:52:09;5.53;;;4.90;;
7929;SDS011;4010;42.698;23.124;2023-03-03T06:54:39;7.03;;;5.13;;
7929;SDS011;4010;42.698;23.124;2023-03-03T06:57:09;6.73;;;5.50;;
7929;SDS011;4010;42.698;23.124;2023-03-03T06:59:42;8.07;;;5.47;;
7929;SDS011;4010;42.698;23.124;2023-03-03T07:02:13;7.23;;;5.40;;
7929;SDS011;4010;42.698;23.124;2023-03-03T07:04:42;9.20;;;5.07;;
7929;SDS011;4010;42.698;23.124;2023-03-03T07:07:14;5.30;;;4.80;;
7929;SDS011;4010;42.698;23.124;2023-03-03T07:09:43;5.90;;;5.13;;
7929;SDS011;4010;42.698;23.124;2023-03-03T07:12:11;5.33;;;4.80;;
7929;SDS011;4010;42.698;23.124;2023-03-03T07:14:44;7.60;;;5.17;;
7929;SDS011;4010;42.698;23.124;2023-03-03T07:17:14;6.23;;;4.77;;
7929;SDS011;4010;42.698;23.124;2023-03-03T07:19:43;6.30;;;5.10;;
7929;SDS011;4010;42.698;23.124;2023-03-03T07:22:12;7.27;;;5.50;;
7929;SDS011;4010;42.698;23.124;2023-03-03T07:24:42;4.80;;;4.17;;
7929;SDS011;4010;42.698;23.124;2023-03-03T07:27:10;5.07;;;4.57;;
7929;SDS011;4010;42.698;23.124;2023-03-03T07:29:42;5.37;;;4.40;;
7929;SDS011;4010;42.698;23.124;2023-03-03T07:32:20;6.77;;;4.87;;
7929;SDS011;4010;42.698;23.124;2023-03-03T07:34:51;6.40;;;5.17;;
7929;SDS011;4010;42.698;23.124;2023-03-03T07:37:21;6.40;;;5.67;;
7929;SDS011;4010;42.698;23.124;2023-03-03T07:39:56;6.10;;;4.97;;
7929;SDS011;4010;42.698;23.124;2023-03-03T07:42:24;5.53;;;4.93;;
7929;SDS011;4010;42.698;23.124;2023-03-03T07:44:53;7.47;;;5.70;;
7929;SDS011;4010;42.698;23.124;2023-03-03T07:47:23;8.57;;;6.13;;
7929;SDS011;4010;42.698;23.124;2023-03-03T07:49:51;7.30;;;5.93;;
7929;SDS011;4010;42.698;23.124;2023-03-03T07:52:22;7.87;;;5.03;;
7929;SDS011;4010;42.698;23.124;2023-03-03T07:54:55;8.83;;;7.23;;
7929;SDS011;4010;42.698;23.124;2023-03-03T07:57:23;10.27;;;7.77;;
7929;SDS011;4010;42.698;23.124;2023-03-03T07:59:52;14.10;;;11.00;;
7929;SDS011;4010;42.698;23.124;2023-03-03T08:02:33;12.73;;;10.60;;
7929;SDS011;4010;42.698;23.124;2023-03-03T08:08:11;7.00;;;6.17;;
7929;SDS011;4010;42.698;23.124;2023-03-03T08:10:45;8.37;;;5.70;;
7929;SDS011;4010;42.698;23.124;2023-03-03T08:13:17;7.60;;;5.60;;
7929;SDS011;4010;42.698;23.124;2023-03-03T08:15:45;6.97;;;6.00;;
7929;SDS011;4010;42.698;23.124;2023-03-03T08:18:22;7.73;;;5.90;;
7929;SDS011;4010;42.698;23.124;2023-03-03T08:20:56;7.23;;;5.33;;
7929;SDS011;4010;42.698;23.124;2023-03-03T08:23:23;15.37;;;10.67;;
7929;SDS011;4010;42.698;23.124;2023-03-03T08:25:51;8.20;;;5.97;;
7929;SDS011;4010;42.698;23.124;2023-03-03T08:28:18;7.23;;;6.03;;
7929;SDS011;4010;42.698;23.124;2023-03-03T08:30:46;6.77;;;5.47;;
7929;SDS011;4010;42.698;23.124;2023-03-03T08:33:14;7.80;;;5.90;;
7929;SDS011;4010;42.698;23.124;2023-03-03T08:35:42;6.70;;;5.77;;
7929;SDS011;4010;42.698;23.124;2023-03-03T08:38:09;7.30;;;5.87;;
7929;SDS011;4010;42.698;23.124;2023-03-03T08:40:37;9.77;;;6.50;;
7929;SDS011;4010;42.698;23.124;2023-03-03T08:43:04;14.60;;;13.10;;
7929;SDS011;4010;42.698;23.124;2023-03-03T08:45:31;8.67;;;7.10;;
7929;SDS011;4010;42.698;23.124;2023-03-03T08:47:58;8.67;;;6.57;;
7929;SDS011;4010;42.698;23.124;2023-03-03T08:50:25;9.83;;;7.40;;
7929;SDS011;4010;42.698;23.124;2023-03-03T08:52:54;8.07;;;6.30;;
7929;SDS011;4010;42.698;23.124;2023-03-03T08:55:20;5.90;;;4.60;;
7929;SDS011;4010;42.698;23.124;2023-03-03T08:57:47;4.90;;;4.40;;
7929;SDS011;4010;42.698;23.124;2023-03-03T09:00:15;5.10;;;4.60;;
7929;SDS011;4010;42.698;23.124;2023-03-03T09:02:43;5.87;;;4.77;;
7929;SDS011;4010;42.698;23.124;2023-03-03T09:05:09;4.87;;;4.10;;
7929;SDS011;4010;42.698;23.124;2023-03-03T09:07:37;5.63;;;4.60;;
7929;SDS011;4010;42.698;23.124;2023-03-03T09:10:05;8.57;;;4.83;;
7929;SDS011;4010;42.698;23.124;2023-03-03T09:12:33;6.37;;;5.13;;
7929;SDS011;4010;42.698;23.124;2023-03-03T09:15:11;6.40;;;5.00;;
7929;SDS011;4010;42.698;23.124;2023-03-03T09:17:45;4.60;;;4.10;;
7929;SDS011;4010;42.698;23.124;2023-03-03T09:25:55;7.53;;;5.20;;
7929;SDS011;4010;42.698;23.124;2023-03-03T09:28:24;5.87;;;4.93;;
7929;SDS011;4010;42.698;23.124;2023-03-03T09:30:54;8.47;;;5.43;;
7929;SDS011;4010;42.698;23.124;2023-03-03T09:33:24;12.50;;;8.87;;
7929;SDS011;4010;42.698;23.124;2023-03-03T09:35:53;8.80;;;5.87;;
7929;SDS011;4010;42.698;23.124;2023-03-03T09:38:25;4.33;;;3.93;;
7929;SDS011;4010;42.698;23.124;2023-03-03T09:40:59;5.97;;;4.90;;
7929;SDS011;4010;42.698;23.124;2023-03-03T09:43:44;4.47;;;3.97;;
7929;SDS011;4010;42.698;23.124;2023-03-03T09:46:22;5.23;;;4.73;;
7929;SDS011;4010;42.698;23.124;2023-03-03T09:49:01;5.80;;;5.03;;
7929;SDS011;4010;42.698;23.124;2023-03-03T09:51:50;5.43;;;3.87;;
7929;SDS011;4010;42.698;23.124;2023-03-03T09:54:38;4.00;;;3.60;;
7929;SDS011;4010;42.698;23.124;2023-03-03T09:57:18;5.97;;;4.70;;
7929;SDS011;4010;42.698;23.124;2023-03-03T09:59:56;5.60;;;4.43;;
7929;SDS011;4010;42.698;23.124;2023-03-03T10:02:37;5.17;;;3.93;;
7929;SDS011;4010;42.698;23.124;2023-03-03T10:05:17;4.23;;;3.83;;
7929;SDS011;4010;42.698;23.124;2023-03-03T10:07:54;5.33;;;4.33;;
7929;SDS011;4010;42.698;23.124;2023-03-03T10:10:46;5.60;;;4.70;;
7929;SDS011;4010;42.698;23.124;2023-03-03T10:13:25;18.77;;;8.57;;
7929;SDS011;4010;42.698;23.124;2023-03-03T10:16:08;10.37;;;6.83;;
7929;SDS011;4010;42.698;23.124;2023-03-03T10:18:57;7.80;;;5.70;;
7929;SDS011;4010;42.698;23.124;2023-03-03T10:21:28;5.17;;;4.57;;
7929;SDS011;4010;42.698;23.124;2023-03-03T10:24:01;5.10;;;4.30;;
7929;SDS011;4010;42.698;23.124;2023-03-03T10:26:47;7.53;;;5.33;;
7929;SDS011;4010;42.698;23.124;2023-03-03T10:29:32;10.30;;;6.77;;
7929;SDS011;4010;42.698;23.124;2023-03-03T10:32:14;16.07;;;9.80;;
7929;SDS011;4010;42.698;23.124;2023-03-03T10:40:49;4.93;;;4.20;;
7929;SDS011;4010;42.698;23.124;2023-03-03T10:46:14;6.63;;;5.33;;
7929;SDS011;4010;42.698;23.124;2023-03-03T10:51:43;6.30;;;5.33;;
7929;SDS011;4010;42.698;23.124;2023-03-03T10:54:30;5.50;;;4.43;;
7929;SDS011;4010;42.698;23.124;2023-03-03T10:57:10;6.10;;;4.77;;
7929;SDS011;4010;42.698;23.124;2023-03-03T10:59:47;5.07;;;4.57;;
7929;SDS011;4010;42.698;23.124;2023-03-03T11:02:29;5.97;;;4.73;;
7929;SDS011;4010;42.698;23.124;2023-03-03T11:05:09;6.15;;;5.00;;
7929;SDS011;4010;42.698;23.124;2023-03-03T11:07:43;5.13;;;4.60;;
7929;SDS011;4010;42.698;23.124;2023-03-03T11:10:17;5.43;;;4.73;;
7929;SDS011;4010;42.698;23.124;2023-03-03T11:12:53;4.83;;;3.93;;
7929;SDS011;4010;42.698;23.124;2023-03-03T11:15:38;4.20;;;3.10;;
7929;SDS011;4010;42.698;23.124;2023-03-03T11:18:16;3.93;;;3.40;;
7929;SDS011;4010;42.698;23.124;2023-03-03T11:20:51;3.10;;;2.83;;
7929;SDS011;4010;42.698;23.124;2023-03-03T11:23:31;3.00;;;2.70;;
7929;SDS011;4010;42.698;23.124;2023-03-03T11:26:22;4.60;;;3.00;;
7929;SDS011;4010;42.698;23.124;2023-03-03T11:29:01;7.57;;;5.30;;
7929;SDS011;4010;42.698;23.124;2023-03-03T11:31:41;5.80;;;4.17;;
7929;SDS011;4010;42.698;23.124;2023-03-03T11:34:17;7.50;;;5.13;;
7929;SDS011;4010;42.698;23.124;2023-03-03T11:37:03;5.13;;;3.90;;
7929;SDS011;4010;42.698;23.124;2023-03-03T11:39:33;3.30;;;3.00;;
7929;SDS011;4010;42.698;23.124;2023-03-03T11:42:03;8.00;;;5.70;;
7929;SDS011;4010;42.698;23.124;2023-03-03T11:44:42;5.47;;;4.30;;
7929;SDS011;4010;42.698;23.124;2023-03-03T11:47:14;5.13;;;3.60;;
7929;SDS011;4010;42.698;23.124;2023-03-03T11:49:47;5.63;;;4.10;;
7929;SDS011;4010;42.698;23.124;2023-03-03T11:52:21;4.50;;;3.63;;
7929;SDS011;4010;42.698;23.124;2023-03-03T11:54:53;10.53;;;6.30;;
7929;SDS011;4010;42.698;23.124;2023-03-03T11:57:26;13.90;;;8.80;;
7929;SDS011;4010;42.698;23.124;2023-03-03T11:59:59;4.73;;;3.73;;
7929;SDS011;4010;42.698;23.124;2023-03-03T12:02:37;4.03;;;3.33;;
7929;SDS011;4010;42.698;23.124;2023-03-03T12:05:15;5.33;;;3.90;;
7929;SDS011;4010;42.698;23.124;2023-03-03T12:07:54;6.27;;;4.80;;
7929;SDS011;4010;42.698;23.124;2023-03-03T12:10:33;9.37;;;6.47;;
7929;SDS011;4010;42.698;23.124;2023-03-03T12:13:05;7.23;;;5.43;;
7929;SDS011;4010;42.698;23.124;2023-03-03T12:15:44;11.17;;;6.57;;
7929;SDS011;4010;42.698;23.124;2023-03-03T12:18:24;12.83;;;6.27;;
7929;SDS011;4010;42.698;23.124;2023-03-03T12:21:18;12.70;;;6.03;;
7929;SDS011;4010;42.698;23.124;2023-03-03T12:24:06;5.83;;;4.37;;
7929;SDS011;4010;42.698;23.124;2023-03-03T12:26:45;5.80;;;3.93;;
7929;SDS011;4010;42.698;23.124;2023-03-03T12:29:24;4.97;;;4.00;;
7929;SDS011;4010;42.698;23.124;2023-03-03T12:31:55;4.37;;;3.10;;
7929;SDS011;4010;42.698;23.124;2023-03-03T12:34:31;4.63;;;3.23;;
7929;SDS011;4010;42.698;23.124;2023-03-03T12:37:13;3.80;;;2.77;;
7929;SDS011;4010;42.698;23.124;2023-03-03T12:39:51;4.53;;;3.70;;
7929;SDS011;4010;42.698;23.124;2023-03-03T12:42:31;5.37;;;3.77;;
7929;SDS011;4010;42.698;23.124;2023-03-03T12:45:08;4.77;;;3.40;;
7929;SDS011;4010;42.698;23.124;2023-03-03T12:47:48;4.17;;;3.07;;
7929;SDS011;4010;42.698;23.124;2023-03-03T12:50:21;3.20;;;2.60;;
7929;SDS011;4010;42.698;23.124;2023-03-03T12:53:00;3.37;;;3.07;;
7929;SDS011;4010;42.698;23.124;2023-03-03T12:55:38;4.07;;;3.53;;
7929;SDS011;4010;42.698;23.124;2023-03-03T12:58:14;5.13;;;3.50;;
7929;SDS011;4010;42.698;23.124;2023-03-03T13:00:53;3.50;;;3.03;;
7929;SDS011;4010;42.698;23.124;2023-03-03T13:03:33;3.77;;;3.17;;
7929;SDS011;4010;42.698;23.124;2023-03-03T13:06:06;7.13;;;3.27;;
7929;SDS011;4010;42.698;23.124;2023-03-03T13:08:47;4.33;;;3.50;;
7929;SDS011;4010;42.698;23.124;2023-03-03T13:11:41;3.63;;;2.93;;
7929;SDS011;4010;42.698;23.124;2023-03-03T13:14:20;4.70;;;3.67;;
7929;SDS011;4010;42.698;23.124;2023-03-03T13:16:57;7.57;;;3.80;;
7929;SDS011;4010;42.698;23.124;2023-03-03T13:19:32;4.97;;;4.47;;
7929;SDS011;4010;42.698;23.124;2023-03-03T13:22:07;9.57;;;5.47;;
7929;SDS011;4010;42.698;23.124;2023-03-03T13:24:40;10.40;;;6.23;;
7929;SDS011;4010;42.698;23.124;2023-03-03T13:27:17;4.13;;;2.53;;
7929;SDS011;4010;42.698;23.124;2023-03-03T13:29:50;2.93;;;2.10;;
7929;SDS011;4010;42.698;23.124;2023-03-03T13:32:26;2.33;;;2.10;;
7929;SDS011;4010;42.698;23.124;2023-03-03T13:35:02;4.47;;;2.70;;
7929;SDS011;4010;42.698;23.124;2023-03-03T13:37:34;2.87;;;2.40;;
7929;SDS011;4010;42.698;23.124;2023-03-03T13:40:12;2.90;;;2.40;;
7929;SDS011;4010;42.698;23.124;2023-03-03T13:42:42;6.77;;;4.53;;
7929;SDS011;4010;42.698;23.124;2023-03-03T13:45:16;8.37;;;5.23;;
7929;SDS011;4010;42.698;23.124;2023-03-03T13:47:47;5.17;;;3.13;;
7929;SDS011;4010;42.698;23.124;2023-03-03T13:50:19;9.53;;;5.60;;
7929;SDS011;4010;42.698;23.124;2023-03-03T13:52:56;7.20;;;5.33;;
7929;SDS011;4010;42.698;23.124;2023-03-03T13:55:38;8.90;;;6.33;;
7929;SDS011;4010;42.698;23.124;2023-03-03T13:58:11;8.33;;;6.57;;
7929;SDS011;4010;42.698;23.124;2023-03-03T14:00:52;8.20;;;6.13;;
7929;SDS011;4010;42.698;23.124;2023-03-03T14:06:19;10.33;;;6.83;;
7929;SDS011;4010;42.698;23.124;2023-03-03T14:11:42;6.90;;;5.40;;
7929;SDS011;4010;42.698;23.124;2023-03-03T14:14:17;9.87;;;7.07;;
7929;SDS011;4010;42.698;23.124;2023-03-03T14:16:55;9.17;;;6.00;;
7929;SDS011;4010;42.698;23.124;2023-03-03T14:19:27;6.87;;;5.73;;
7929;SDS011;4010;42.698;23.124;2023-03-03T14:22:03;9.97;;;6.97;;
7929;SDS011;4010;42.698;23.124;2023-03-03T14:27:23;5.87;;;5.27;;
7929;SDS011;4010;42.698;23.124;2023-03-03T14:29:51;9.57;;;4.90;;
7929;SDS011;4010;42.698;23.124;2023-03-03T14:32:22;5.30;;;4.10;;
7929;SDS011;4010;42.698;23.124;2023-03-03T14:34:57;15.77;;;10.97;;
7929;SDS011;4010;42.698;23.124;2023-03-03T14:37:27;8.43;;;5.80;;
7929;SDS011;4010;42.698;23.124;2023-03-03T14:40:13;8.60;;;4.80;;
7929;SDS011;4010;42.698;23.124;2023-03-03T14:42:52;7.47;;;5.67;;
7929;SDS011;4010;42.698;23.124;2023-03-03T14:45:31;9.97;;;7.87;;
7929;SDS011;4010;42.698;23.124;2023-03-03T14:48:04;8.47;;;5.73;;
7929;SDS011;4010;42.698;23.124;2023-03-03T14:50:36;11.23;;;8.53;;
7929;SDS011;4010;42.698;23.124;2023-03-03T14:53:09;6.90;;;5.50;;
7929;SDS011;4010;42.698;23.124;2023-03-03T14:55:40;10.60;;;5.03;;
7929;SDS011;4010;42.698;23.124;2023-03-03T14:58:29;8.07;;;6.03;;
7929;SDS011;4010;42.698;23.124;2023-03-03T15:03:49;13.87;;;8.90;;
7929;SDS011;4010;42.698;23.124;2023-03-03T15:06:28;11.83;;;8.90;;
7929;SDS011;4010;42.698;23.124;2023-03-03T15:11:50;10.50;;;8.17;;
7929;SDS011;4010;42.698;23.124;2023-03-03T15:14:28;12.07;;;7.60;;
7929;SDS011;4010;42.698;23.124;2023-03-03T15:16:57;5.70;;;5.03;;
7929;SDS011;4010;42.698;23.124;2023-03-03T15:19:45;8.00;;;6.67;;
7929;SDS011;4010;42.698;23.124;2023-03-03T15:22:19;10.63;;;6.73;;
7929;SDS011;4010;42.698;23.124;2023-03-03T15:24:54;9.67;;;6.20;;
7929;SDS011;4010;42.698;23.124;2023-03-03T15:27:27;8.83;;;6.83;;
7929;SDS011;4010;42.698;23.124;2023-03-03T15:30:02;7.53;;;4.70;;
7929;SDS011;4010;42.698;23.124;2023-03-03T15:32:38;11.73;;;6.67;;
7929;SDS011;4010;42.698;23.124;2023-03-03T15:35:16;4.63;;;4.20;;
7929;SDS011;4010;42.698;23.124;2023-03-03T15:37:51;7.30;;;4.83;;
7929;SDS011;4010;42.698;23.124;2023-03-03T15:40:23;8.03;;;5.90;;
7929;SDS011;4010;42.698;23.124;2023-03-03T15:43:02;10.30;;;7.00;;
7929;SDS011;4010;42.698;23.124;2023-03-03T15:45:37;12.13;;;9.18;;
7929;SDS011;4010;42.698;23.124;2023-03-03T15:48:14;10.40;;;7.57;;
7929;SDS011;4010;42.698;23.124;2023-03-03T15:50:54;9.97;;;7.07;;
7929;SDS011;4010;42.698;23.124;2023-03-03T15:53:40;10.30;;;8.00;;
7929;SDS011;4010;42.698;23.124;2023-03-03T15:56:26;10.83;;;7.63;;
7929;SDS011;4010;42.698;23.124;2023-03-03T15:59:02;19.05;;;11.85;;
7929;SDS011;4010;42.698;23.124;2023-03-03T16:01:54;14.05;;;8.68;;
7929;SDS011;4010;42.698;23.124;2023-03-03T16:04:33;12.87;;;10.10;;